Terminal Aerodrome Forecast
Issued by NWS

Home | Current Version | Previous Version | Text Only | Print | Product List | Glossary On
Versions: 1 2 3 4 5 6 7 8 9 10 11 12 13 14 15 16 17
000
FTUS44 KBMX 150500
TAFTCL
TAF
KTCL 150528Z 1506/1606 35005KT P6SM SCT250
      TEMPO 1510/1514 00000KT 4SM BR BKN015
     FM151400 00000KT 6SM BR SCT015
     FM151700 VRB03KT P6SM VCSH OVC060
     FM152100 35005KT P6SM VCTS SCT025CB BKN050=

USA.gov is the U.S. government's official web portal to all federal, state and local government web resources and services.